New Orleans, Louisiana
Traffic Map
Current Weather Conditions
New Orleans, Louisiana
Clear
Clear
55°
Feels Like: 55°
Wind Chill: 55° Ceiling: Unl
Heat Index: 55° Visibility: 10mi
Dew Point: 46° Wind: 12mph
Humidity: 72% Direction: 340° (NNW)
Pressure: 30.15in Gusts: 0mph
Raw Report DataKNEW 122353Z 34010KT 10SM CLR 13/08 A3015 RMK AO2 SLP202 T01280078 10156 20128 53007
Traffic Incident Summary
Active as of:
Severity:
Category:
InformationThere was an issue retrieving the traffic information for this location. Please try a different location or try again shortly.
Advertisements